Time,TemperatureF,DewpointF,PressureIn,WindDirection,WindDirectionDegrees,WindSpeedMPH,WindSpeedGustMPH,Humidity,HourlyPrecipIn,Conditions,Clouds,dailyrainin,SoftwareType,DateUTC
2013-08-05 00:01:00,59.3,54.2,29.99,SW,229,0.0,1.0,83,0.00,,---,0.01,VWS V14.01,2013-08-05 04:01:00,
2013-08-05 00:06:00,59.1,54.0,29.99,SW,229,0.0,0.0,83,0.00,,---,0.00,VWS V14.01,2013-08-05 04:06:00,
2013-08-05 00:11:00,58.9,54.1,30.00,SW,236,0.0,0.0,84,0.00,,---,0.00,VWS V14.01,2013-08-05 04:11:00,
2013-08-05 00:16:00,58.6,53.8,29.99,SW,236,0.0,0.0,84,0.00,,---,0.00,VWS V14.01,2013-08-05 04:16:00,
2013-08-05 00:21:00,58.4,53.9,30.00,SW,236,0.0,0.0,85,0.00,,---,0.00,VWS V14.01,2013-08-05 04:21:00,
2013-08-05 00:26:00,58.2,53.7,29.99,SW,235,0.0,0.0,85,0.00,,---,0.00,VWS V14.01,2013-08-05 04:26:00,
2013-08-05 00:31:00,57.9,53.4,29.99,SW,234,0.0,0.0,85,0.00,,---,0.00,VWS V14.01,2013-08-05 04:31:00,
2013-08-05 00:36:00,57.8,53.7,29.99,SW,235,0.0,0.0,86,0.00,,---,0.00,VWS V14.01,2013-08-05 04:36:00,
2013-08-05 00:41:00,57.6,53.5,30.00,SW,235,0.0,0.0,86,0.00,,---,0.00,VWS V14.01,2013-08-05 04:41:00,
2013-08-05 00:46:00,57.3,53.2,29.99,SW,235,0.0,0.0,86,0.00,,---,0.00,VWS V14.01,2013-08-05 04:46:00,
2013-08-05 00:51:00,57.1,53.3,29.99,SW,234,0.0,0.0,87,0.00,,---,0.00,VWS V14.01,2013-08-05 04:51:00,
2013-08-05 00:56:00,56.9,53.4,30.00,SW,236,0.0,0.0,88,0.00,,---,0.00,VWS V14.01,2013-08-05 04:56:00,
2013-08-05 01:01:00,56.8,53.3,30.00,SW,235,0.0,0.0,88,0.00,,---,0.00,VWS V14.01,2013-08-05 05:01:00,
2013-08-05 01:06:00,56.7,53.5,29.99,WNW,293,2.0,2.0,89,0.00,,---,0.00,VWS V14.01,2013-08-05 05:06:00,
2013-08-05 01:11:00,56.9,52.8,29.99,NW,316,2.0,2.0,86,0.00,,---,0.00,VWS V14.01,2013-08-05 05:11:00,
2013-08-05 01:16:00,58.0,52.9,29.99,NW,313,0.0,2.0,83,0.00,,---,0.00,VWS V14.01,2013-08-05 05:16:00,
2013-08-05 01:20:00,58.2,53.1,29.99,West,274,0.0,2.0,83,0.00,,---,0.00,VWS V14.01,2013-08-05 05:20:00,
2013-08-05 01:25:00,58.1,53.3,29.99,WNW,297,2.0,2.0,84,0.00,,---,0.00,VWS V14.01,2013-08-05 05:25:00,
2013-08-05 01:31:00,58.8,52.0,29.99,WNW,300,1.0,3.0,78,0.00,,---,0.00,VWS V14.01,2013-08-05 05:31:00,
2013-08-05 01:35:00,59.7,52.5,29.99,NW,308,2.0,3.0,77,0.00,,---,0.00,VWS V14.01,2013-08-05 05:35:00,
2013-08-05 01:41:00,59.7,53.2,29.99,WNW,285,2.0,3.0,79,0.00,,---,0.00,VWS V14.01,2013-08-05 05:41:00,
2013-08-05 01:45:00,59.4,53.2,29.99,WNW,290,3.0,3.0,80,0.00,,---,0.00,VWS V14.01,2013-08-05 05:45:00,
2013-08-05 01:51:00,59.1,52.9,29.99,NW,308,2.0,3.0,80,0.00,,---,0.00,VWS V14.01,2013-08-05 05:51:00,
2013-08-05 01:56:00,59.2,52.3,29.99,NW,311,3.0,4.0,78,0.00,,---,0.00,VWS V14.01,2013-08-05 05:56:00,
2013-08-05 02:01:00,59.9,52.3,29.99,NW,314,2.0,4.0,76,0.00,,---,0.00,VWS V14.01,2013-08-05 06:01:00,
2013-08-05 02:06:00,59.9,52.0,29.99,NW,314,2.0,3.0,75,0.00,,---,0.00,VWS V14.01,2013-08-05 06:06:00,
2013-08-05 02:11:00,59.7,52.5,29.99,NW,305,2.0,3.0,77,0.00,,---,0.00,VWS V14.01,2013-08-05 06:11:00,
2013-08-05 02:16:00,59.6,53.1,29.99,WNW,300,2.0,3.0,79,0.00,,---,0.00,VWS V14.01,2013-08-05 06:16:00,
2013-08-05 02:21:00,59.8,52.2,29.99,NW,316,3.0,3.0,76,0.00,,---,0.00,VWS V14.01,2013-08-05 06:21:00,
2013-08-05 02:25:00,59.9,52.3,29.99,NW,319,2.0,3.0,76,0.00,,---,0.00,VWS V14.01,2013-08-05 06:25:00,
2013-08-05 02:31:00,60.1,52.2,29.99,NW,319,0.0,3.0,75,0.00,,---,0.00,VWS V14.01,2013-08-05 06:31:00,
2013-08-05 02:36:00,60.3,52.3,30.00,NW,312,2.0,2.0,75,0.00,,---,0.00,VWS V14.01,2013-08-05 06:36:00,
2013-08-05 02:41:00,60.3,52.3,30.00,NW,319,1.0,2.0,75,0.00,,---,0.00,VWS V14.01,2013-08-05 06:41:00,
2013-08-05 02:46:00,60.3,52.0,30.00,NW,326,2.0,3.0,74,0.00,,---,0.00,VWS V14.01,2013-08-05 06:46:00,
2013-08-05 02:51:00,60.4,52.1,30.00,NNW,328,1.0,3.0,74,0.00,,---,0.00,VWS V14.01,2013-08-05 06:51:00,
2013-08-05 02:55:00,60.5,52.2,30.00,NW,326,1.0,3.0,74,0.00,,---,0.00,VWS V14.01,2013-08-05 06:55:00,
2013-08-05 03:01:00,60.5,52.2,30.00,NW,311,2.0,3.0,74,0.00,,---,0.00,VWS V14.01,2013-08-05 07:01:00,
2013-08-05 03:06:00,60.7,52.4,30.00,NW,316,1.0,2.0,74,0.00,,---,0.00,VWS V14.01,2013-08-05 07:06:00,
2013-08-05 03:10:00,60.6,52.6,30.00,NW,319,1.0,2.0,75,0.00,,---,0.00,VWS V14.01,2013-08-05 07:10:00,
2013-08-05 03:16:00,60.6,52.3,30.00,WNW,286,1.0,2.0,74,0.00,,---,0.00,VWS V14.01,2013-08-05 07:16:00,
2013-08-05 03:21:00,60.6,52.3,30.00,NW,326,2.0,2.0,74,0.00,,---,0.00,VWS V14.01,2013-08-05 07:21:00,
2013-08-05 03:26:00,60.5,52.2,30.00,NW,322,2.0,3.0,74,0.00,,---,0.00,VWS V14.01,2013-08-05 07:26:00,
2013-08-05 03:31:00,60.5,52.2,30.00,NNW,328,1.0,4.0,74,0.00,,---,0.00,VWS V14.01,2013-08-05 07:31:00,
2013-08-05 03:36:00,60.5,52.2,30.01,NW,325,2.0,3.0,74,0.00,,---,0.00,VWS V14.01,2013-08-05 07:36:00,
2013-08-05 03:40:00,60.5,52.2,30.01,NW,316,1.0,3.0,74,0.00,,---,0.00,VWS V14.01,2013-08-05 07:40:00,
2013-08-05 03:45:00,60.5,52.2,30.01,NW,315,1.0,3.0,74,0.00,,---,0.00,VWS V14.01,2013-08-05 07:45:00,
2013-08-05 03:50:00,60.5,52.2,30.01,NW,304,2.0,3.0,74,0.00,,---,0.00,VWS V14.01,2013-08-05 07:50:00,
2013-08-05 03:56:00,60.5,52.2,30.01,NW,316,1.0,3.0,74,0.00,,---,0.00,VWS V14.01,2013-08-05 07:56:00,
2013-08-05 04:00:00,60.4,52.8,30.01,WNW,298,1.0,3.0,76,0.00,,---,0.00,VWS V14.01,2013-08-05 08:00:00,
2013-08-05 04:06:00,60.1,52.9,30.01,West,274,1.0,2.0,77,0.00,,---,0.00,VWS V14.01,2013-08-05 08:06:00,
2013-08-05 04:11:00,59.9,52.7,30.01,WSW,258,1.0,2.0,77,0.00,,---,0.00,VWS V14.01,2013-08-05 08:11:00,
2013-08-05 04:15:00,59.6,52.7,30.01,SW,224,1.0,2.0,78,0.00,,---,0.00,VWS V14.01,2013-08-05 08:15:00,
2013-08-05 04:21:00,59.2,52.7,30.01,SE,141,0.0,2.0,79,0.00,,---,0.00,VWS V14.01,2013-08-05 08:21:00,
2013-08-05 04:26:00,58.5,52.7,30.01,SE,141,1.0,2.0,81,0.00,,---,0.00,VWS V14.01,2013-08-05 08:26:00,
2013-08-05 04:31:00,58.2,52.4,30.00,WSW,242,0.0,2.0,81,0.00,,---,0.00,VWS V14.01,2013-08-05 08:31:00,
2013-08-05 04:36:00,57.9,52.5,30.00,SSE,148,1.0,1.0,82,0.00,,---,0.00,VWS V14.01,2013-08-05 08:36:00,
2013-08-05 04:41:00,57.5,52.7,30.01,SSE,148,1.0,2.0,84,0.00,,---,0.00,VWS V14.01,2013-08-05 08:41:00,
2013-08-05 04:46:00,57.2,52.7,30.01,SE,139,0.0,2.0,85,0.00,,---,0.00,VWS V14.01,2013-08-05 08:46:00,
2013-08-05 04:51:00,57.0,52.5,30.01,SE,143,0.0,2.0,85,0.00,,---,0.00,VWS V14.01,2013-08-05 08:51:00,
2013-08-05 04:56:00,56.8,52.7,30.01,SE,145,0.0,2.0,86,0.00,,---,0.00,VWS V14.01,2013-08-05 08:56:00,
2013-08-05 05:01:00,56.7,52.6,30.02,SE,145,0.0,0.0,86,0.00,,---,0.00,VWS V14.01,2013-08-05 09:01:00,
2013-08-05 05:06:00,56.5,52.4,30.02,SE,145,0.0,1.0,86,0.00,,---,0.00,VWS V14.01,2013-08-05 09:06:00,
2013-08-05 05:12:00,56.4,52.6,30.02,West,262,0.0,1.0,87,0.00,,---,0.00,VWS V14.01,2013-08-05 09:12:00,
2013-08-05 05:16:00,56.3,52.8,30.02,West,262,0.0,1.0,88,0.00,,---,0.00,VWS V14.01,2013-08-05 09:16:00,
2013-08-05 05:22:00,56.2,53.0,30.03,West,262,0.0,1.0,89,0.00,,---,0.00,VWS V14.01,2013-08-05 09:22:00,
2013-08-05 05:27:00,56.0,52.8,30.03,West,262,0.0,1.0,89,0.00,,---,0.00,VWS V14.01,2013-08-05 09:27:00,
2013-08-05 05:32:00,55.8,52.6,30.03,West,261,0.0,0.0,89,0.00,,---,0.00,VWS V14.01,2013-08-05 09:32:00,
2013-08-05 05:37:00,55.6,52.4,30.03,West,262,0.0,0.0,89,0.00,,---,0.00,VWS V14.01,2013-08-05 09:37:00,
2013-08-05 05:42:00,55.5,52.6,30.03,West,262,0.0,0.0,90,0.00,,---,0.00,VWS V14.01,2013-08-05 09:42:00,
2013-08-05 05:47:00,55.3,52.7,30.04,West,262,0.0,0.0,91,0.00,,---,0.00,VWS V14.01,2013-08-05 09:47:00,
2013-08-05 05:53:00,55.1,52.5,30.04,West,262,0.0,0.0,91,0.00,,---,0.00,VWS V14.01,2013-08-05 09:53:00,
2013-08-05 05:58:00,54.9,52.6,30.04,West,262,0.0,0.0,92,0.00,,---,0.00,VWS V14.01,2013-08-05 09:58:00,
2013-08-05 06:03:00,54.8,52.5,30.04,West,262,0.0,0.0,92,0.00,,---,0.00,VWS V14.01,2013-08-05 10:03:00,
2013-08-05 06:08:00,54.7,52.7,30.05,West,262,0.0,0.0,93,0.00,,---,0.00,VWS V14.01,2013-08-05 10:08:00,
2013-08-05 06:12:00,54.5,52.5,30.05,West,262,0.0,0.0,93,0.00,,---,0.00,VWS V14.01,2013-08-05 10:12:00,
2013-08-05 06:18:00,54.4,52.4,30.05,West,262,0.0,0.0,93,0.00,,---,0.00,VWS V14.01,2013-08-05 10:18:00,
2013-08-05 06:23:00,54.2,52.2,30.05,West,262,0.0,0.0,93,0.00,,---,0.00,VWS V14.01,2013-08-05 10:23:00,
2013-08-05 06:28:00,54.2,52.2,30.05,West,262,0.0,0.0,93,0.00,,---,0.00,VWS V14.01,2013-08-05 10:28:00,
2013-08-05 06:34:00,54.2,52.5,30.05,West,262,0.0,0.0,94,0.00,,---,0.00,VWS V14.01,2013-08-05 10:34:00,
2013-08-05 06:39:00,54.4,52.7,30.05,West,260,0.0,0.0,94,0.00,,---,0.00,VWS V14.01,2013-08-05 10:39:00,
2013-08-05 06:44:00,54.9,53.2,30.05,SE,139,0.0,1.0,94,0.00,,---,0.00,VWS V14.01,2013-08-05 10:44:00,
2013-08-05 06:49:00,55.3,53.3,30.05,SE,139,0.0,1.0,93,0.00,,---,0.00,VWS V14.01,2013-08-05 10:49:00,
2013-08-05 06:54:00,55.5,53.2,30.05,SE,139,0.0,1.0,92,0.00,,---,0.00,VWS V14.01,2013-08-05 10:54:00,
2013-08-05 06:59:00,55.7,53.4,30.05,SE,140,0.0,1.0,92,0.00,,---,0.00,VWS V14.01,2013-08-05 10:59:00,
2013-08-05 07:04:00,56.1,53.5,30.05,WNW,297,0.0,2.0,91,0.00,,---,0.00,VWS V14.01,2013-08-05 11:04:00,
2013-08-05 07:09:00,56.9,53.1,30.05,West,276,1.0,2.0,87,0.00,,---,0.00,VWS V14.01,2013-08-05 11:09:00,
2013-08-05 07:14:00,57.8,53.3,30.05,NNE,32,0.0,2.0,85,0.00,,---,0.00,VWS V14.01,2013-08-05 11:14:00,
2013-08-05 07:19:00,58.3,53.2,30.05,WSW,252,1.0,2.0,83,0.00,,---,0.00,VWS V14.01,2013-08-05 11:19:00,
2013-08-05 07:24:00,59.0,53.2,30.05,WSW,256,2.0,4.0,81,0.00,,---,0.00,VWS V14.01,2013-08-05 11:24:00,
2013-08-05 07:29:00,59.5,53.3,30.05,West,266,1.0,4.0,80,0.00,,---,0.00,VWS V14.01,2013-08-05 11:29:00,
2013-08-05 07:34:00,59.8,53.6,30.05,NNW,327,0.0,5.0,80,0.00,,---,0.00,VWS V14.01,2013-08-05 11:34:00,
2013-08-05 07:39:00,60.0,53.1,30.05,WNW,287,1.0,5.0,78,0.00,,---,0.00,VWS V14.01,2013-08-05 11:39:00,
2013-08-05 07:45:00,60.3,53.4,30.05,West,266,1.0,5.0,78,0.00,,---,0.00,VWS V14.01,2013-08-05 11:45:00,
2013-08-05 07:49:00,60.6,53.4,30.05,North,357,3.0,5.0,77,0.00,,---,0.00,VWS V14.01,2013-08-05 11:49:00,
2013-08-05 07:55:00,60.8,53.5,30.05,NNW,333,3.0,5.0,77,0.00,,---,0.00,VWS V14.01,2013-08-05 11:55:00,
2013-08-05 08:00:00,61.2,53.2,30.05,WNW,288,5.0,7.0,75,0.00,,---,0.00,VWS V14.01,2013-08-05 12:00:00,
2013-08-05 08:05:00,61.6,53.6,30.05,NNW,328,1.0,4.0,75,0.00,,---,0.00,VWS V14.01,2013-08-05 12:05:00,
2013-08-05 08:10:00,61.9,53.2,30.05,North,9,2.0,7.0,73,0.00,,---,0.00,VWS V14.01,2013-08-05 12:10:00,
2013-08-05 08:15:00,62.2,53.8,30.05,NNE,20,3.0,7.0,74,0.00,,---,0.00,VWS V14.01,2013-08-05 12:15:00,
2013-08-05 08:20:00,62.5,54.5,30.06,NNW,345,2.0,7.0,75,0.00,,---,0.00,VWS V14.01,2013-08-05 12:20:00,
2013-08-05 08:25:00,62.8,54.0,30.06,NNE,18,3.0,7.0,72,0.00,,,0.00,weatherlink.com 1.10,2013-08-05 12:25:00,
2013-08-05 08:30:00,63.0,53.5,30.06,NNE,16,2.0,7.0,71,0.00,,---,0.00,VWS V14.01,2013-08-05 12:30:00,
2013-08-05 08:35:00,63.2,54.0,30.06,NNE,20,2.0,5.0,72,0.00,,---,0.00,VWS V14.01,2013-08-05 12:35:00,
2013-08-05 08:41:00,63.3,53.4,30.06,North,11,4.0,5.0,70,0.00,,---,0.00,VWS V14.01,2013-08-05 12:41:00,
2013-08-05 08:46:00,63.3,51.3,30.06,NW,316,4.0,9.0,65,0.00,,---,0.00,VWS V14.01,2013-08-05 12:46:00,
2013-08-05 08:51:00,63.3,51.8,30.06,NNE,22,2.0,9.0,66,0.00,,---,0.00,VWS V14.01,2013-08-05 12:51:00,
2013-08-05 08:56:00,63.5,51.1,30.06,WNW,296,4.0,9.0,64,0.00,,---,0.00,VWS V14.01,2013-08-05 12:56:00,
2013-08-05 09:00:00,63.8,51.4,30.06,ENE,74,1.0,1.0,64,0.00,,---,0.00,VWS V14.01,2013-08-05 13:00:00,
2013-08-05 09:06:00,64.0,51.6,30.06,NE,49,2.0,5.0,64,0.00,,---,0.00,VWS V14.01,2013-08-05 13:06:00,
2013-08-05 09:11:00,64.1,50.8,30.06,NW,320,3.0,6.0,62,0.00,,---,0.00,VWS V14.01,2013-08-05 13:11:00,
2013-08-05 09:16:00,64.3,51.0,30.06,NNE,18,3.0,6.0,62,0.00,,---,0.00,VWS V14.01,2013-08-05 13:16:00,
2013-08-05 09:21:00,64.6,51.3,30.06,NNW,346,4.0,6.0,62,0.00,,---,0.00,VWS V14.01,2013-08-05 13:21:00,
2013-08-05 09:26:00,64.6,49.5,30.06,NNW,333,5.0,9.0,58,0.00,,---,0.00,VWS V14.01,2013-08-05 13:26:00,
2013-08-05 09:31:00,64.8,49.2,30.06,North,1,4.0,5.0,57,0.00,,---,0.00,VWS V14.01,2013-08-05 13:31:00,
2013-08-05 09:36:00,65.0,49.4,30.06,NW,316,5.0,8.0,57,0.00,,---,0.00,VWS V14.01,2013-08-05 13:36:00,
2013-08-05 09:42:00,65.2,48.6,30.06,NW,322,4.0,8.0,55,0.00,,---,0.00,VWS V14.01,2013-08-05 13:42:00,
2013-08-05 09:47:00,65.4,48.3,30.06,NNE,18,2.0,8.0,54,0.00,,---,0.00,VWS V14.01,2013-08-05 13:47:00,
2013-08-05 09:51:00,65.6,49.0,30.06,NNE,22,3.0,8.0,55,0.00,,---,0.00,VWS V14.01,2013-08-05 13:51:00,
2013-08-05 09:56:00,65.9,48.8,30.06,NW,305,4.0,8.0,54,0.00,,---,0.00,VWS V14.01,2013-08-05 13:56:00,
2013-08-05 10:02:00,65.9,47.8,30.06,North,352,2.0,5.0,52,0.00,,---,0.00,VWS V14.01,2013-08-05 14:02:00,
2013-08-05 10:07:00,65.9,48.3,30.07,NNW,329,3.0,7.0,53,0.00,,---,0.00,VWS V14.01,2013-08-05 14:07:00,
2013-08-05 10:12:00,66.1,49.0,30.06,NNE,32,2.0,7.0,54,0.00,,---,0.00,VWS V14.01,2013-08-05 14:12:00,
2013-08-05 10:17:00,66.4,47.7,30.07,NNW,333,5.0,7.0,51,0.00,,---,0.00,VWS V14.01,2013-08-05 14:17:00,
2013-08-05 10:22:00,66.6,47.4,30.07,NNE,16,1.0,7.0,50,0.00,,---,0.00,VWS V14.01,2013-08-05 14:22:00,
2013-08-05 10:27:00,66.7,48.0,30.07,NNE,33,3.0,7.0,51,0.00,,---,0.00,VWS V14.01,2013-08-05 14:27:00,
2013-08-05 10:31:00,66.7,47.5,30.07,NE,55,2.0,2.0,50,0.00,,---,0.00,VWS V14.01,2013-08-05 14:31:00,
2013-08-05 10:36:00,66.7,48.5,30.07,NE,40,1.0,4.0,52,0.00,,---,0.00,VWS V14.01,2013-08-05 14:36:00,
2013-08-05 10:42:00,66.9,48.2,30.07,NE,40,1.0,4.0,51,0.00,,---,0.00,VWS V14.01,2013-08-05 14:42:00,
2013-08-05 10:47:00,67.3,50.6,30.07,SE,145,0.0,4.0,55,0.00,,---,0.00,VWS V14.01,2013-08-05 14:47:00,
2013-08-05 10:51:00,67.7,47.9,30.07,NE,38,1.0,4.0,49,0.00,,---,0.00,VWS V14.01,2013-08-05 14:51:00,
2013-08-05 10:56:00,67.8,47.4,30.07,NE,44,2.0,4.0,48,0.00,,---,0.00,VWS V14.01,2013-08-05 14:56:00,
2013-08-05 11:02:00,68.0,46.5,30.07,NW,304,4.0,6.0,46,0.00,,---,0.00,VWS V14.01,2013-08-05 15:02:00,
2013-08-05 11:07:00,68.4,47.4,30.07,North,357,3.0,6.0,47,0.00,,---,0.00,VWS V14.01,2013-08-05 15:07:00,
2013-08-05 11:12:00,68.6,48.2,30.07,North,8,2.0,6.0,48,0.00,,---,0.00,VWS V14.01,2013-08-05 15:12:00,
2013-08-05 11:17:00,69.1,48.0,30.07,North,352,3.0,4.0,48,0.00,,,0.00,weatherlink.com 1.10,2013-08-05 15:17:00,
2013-08-05 11:22:00,69.2,45.8,30.07,WSW,257,4.0,6.0,43,0.00,,---,0.00,VWS V14.01,2013-08-05 15:22:00,
2013-08-05 11:27:00,69.3,45.9,30.07,WNW,298,5.0,6.0,43,0.00,,---,0.00,VWS V14.01,2013-08-05 15:27:00,
2013-08-05 11:32:00,69.1,46.3,30.07,NNW,347,4.0,6.0,44,0.00,,---,0.00,VWS V14.01,2013-08-05 15:32:00,
2013-08-05 11:37:00,69.0,45.0,30.07,West,274,3.0,7.0,42,0.00,,---,0.00,VWS V14.01,2013-08-05 15:37:00,
2013-08-05 11:42:00,69.1,45.7,30.07,WNW,302,2.0,7.0,43,0.00,,---,0.00,VWS V14.01,2013-08-05 15:42:00,
2013-08-05 11:47:00,69.8,48.1,30.07,West,271,3.0,7.0,46,0.00,,---,0.00,VWS V14.01,2013-08-05 15:47:00,
2013-08-05 11:52:00,70.3,47.4,30.07,NW,323,3.0,7.0,44,0.00,,---,0.00,VWS V14.01,2013-08-05 15:52:00,
2013-08-05 11:58:00,70.5,47.6,30.07,WSW,257,3.0,7.0,44,0.00,,---,0.00,VWS V14.01,2013-08-05 15:58:00,
2013-08-05 12:03:00,70.6,47.7,30.07,WNW,285,6.0,6.0,44,0.00,,---,0.00,VWS V14.01,2013-08-05 16:03:00,
2013-08-05 12:08:00,70.2,46.7,30.07,WSW,256,5.0,7.0,43,0.00,,---,0.00,VWS V14.01,2013-08-05 16:08:00,
2013-08-05 12:13:00,70.3,48.0,30.07,NE,37,0.0,7.0,45,0.00,,---,0.00,VWS V14.01,2013-08-05 16:13:00,
2013-08-05 12:18:00,70.2,47.3,30.06,ENE,60,1.0,7.0,44,0.00,,---,0.00,VWS V14.01,2013-08-05 16:18:00,
2013-08-05 12:23:00,70.3,48.6,30.07,NE,50,2.0,7.0,46,0.00,,---,0.00,VWS V14.01,2013-08-05 16:23:00,
2013-08-05 12:28:00,70.4,48.1,30.06,NW,310,2.0,7.0,45,0.00,,---,0.00,VWS V14.01,2013-08-05 16:28:00,
2013-08-05 12:33:00,70.8,49.0,30.06,NE,44,1.0,3.0,46,0.00,,---,0.00,VWS V14.01,2013-08-05 16:33:00,
2013-08-05 12:38:00,70.6,47.7,30.06,East,82,1.0,7.0,44,0.00,,---,0.00,VWS V14.01,2013-08-05 16:38:00,
2013-08-05 12:43:00,70.8,49.0,30.06,NE,34,2.0,7.0,46,0.00,,---,0.00,VWS V14.01,2013-08-05 16:43:00,
2013-08-05 12:48:00,71.2,49.4,30.05,SE,141,2.0,7.0,46,0.00,,---,0.00,VWS V14.01,2013-08-05 16:48:00,
2013-08-05 12:53:00,71.7,49.8,30.05,WNW,283,1.0,7.0,46,0.00,,---,0.00,VWS V14.01,2013-08-05 16:53:00,
2013-08-05 12:58:00,72.2,49.1,30.05,NW,316,1.0,7.0,44,0.00,,---,0.00,VWS V14.01,2013-08-05 16:58:00,
2013-08-05 13:03:00,72.8,50.2,30.05,North,11,2.0,4.0,45,0.00,,---,0.00,VWS V14.01,2013-08-05 17:03:00,
2013-08-05 13:08:00,72.8,49.6,30.05,West,278,1.0,4.0,44,0.00,,---,0.00,VWS V14.01,2013-08-05 17:08:00,
2013-08-05 13:14:00,72.9,50.3,30.05,West,260,3.0,4.0,45,0.00,,---,0.00,VWS V14.01,2013-08-05 17:14:00,
2013-08-05 13:19:00,73.1,49.9,30.05,NW,307,3.0,6.0,44,0.00,,---,0.00,VWS V14.01,2013-08-05 17:19:00,
2013-08-05 13:24:00,72.7,49.5,30.05,SW,218,1.0,6.0,44,0.00,,---,0.00,VWS V14.01,2013-08-05 17:24:00,
2013-08-05 13:29:00,72.8,49.0,30.04,West,269,4.0,7.0,43,0.00,,---,0.00,VWS V14.01,2013-08-05 17:29:00,
2013-08-05 13:34:00,72.6,50.1,30.04,West,269,3.0,4.0,45,0.00,,---,0.00,VWS V14.01,2013-08-05 17:34:00,
2013-08-05 13:39:00,72.8,50.2,30.04,WNW,298,2.0,6.0,45,0.00,,---,0.00,VWS V14.01,2013-08-05 17:39:00,
2013-08-05 13:44:00,72.7,48.9,30.04,NE,51,2.0,6.0,43,0.00,,---,0.00,VWS V14.01,2013-08-05 17:44:00,
2013-08-05 13:49:00,73.6,50.4,30.03,West,271,3.0,6.0,44,0.00,,---,0.00,VWS V14.01,2013-08-05 17:49:00,
2013-08-05 13:54:00,73.8,49.3,30.03,NNE,18,1.0,6.0,42,0.00,,---,0.00,VWS V14.01,2013-08-05 17:54:00,
2013-08-05 13:59:00,73.7,49.8,30.03,NNW,345,2.0,6.0,43,0.00,,---,0.00,VWS V14.01,2013-08-05 17:59:00,
2013-08-05 14:04:00,73.5,49.7,30.03,North,350,3.0,3.0,43,0.00,,---,0.00,VWS V14.01,2013-08-05 18:04:00,
2013-08-05 14:09:00,73.9,51.2,30.03,West,278,4.0,4.0,45,0.00,,---,0.00,VWS V14.01,2013-08-05 18:09:00,
2013-08-05 14:14:00,74.2,50.3,30.03,NW,304,2.0,4.0,43,0.00,,---,0.00,VWS V14.01,2013-08-05 18:14:00,
2013-08-05 14:20:00,74.1,50.8,30.03,NNW,328,2.0,4.0,44,0.00,,---,0.00,VWS V14.01,2013-08-05 18:20:00,
2013-08-05 14:25:00,74.4,50.5,30.03,WNW,293,0.0,4.0,43,0.00,,---,0.00,VWS V14.01,2013-08-05 18:25:00,
2013-08-05 14:30:00,74.5,50.6,30.03,West,267,7.0,8.0,43,0.00,,---,0.00,VWS V14.01,2013-08-05 18:30:00,
2013-08-05 14:35:00,74.2,49.0,30.02,WNW,285,1.0,5.0,41,0.00,,---,0.00,VWS V14.01,2013-08-05 18:35:00,
2013-08-05 14:40:00,74.5,49.9,30.02,SE,139,0.0,5.0,42,0.00,,---,0.00,VWS V14.01,2013-08-05 18:40:00,
2013-08-05 14:45:00,75.3,50.7,30.03,WNW,291,2.0,5.0,42,0.00,,---,0.00,VWS V14.01,2013-08-05 18:45:00,
2013-08-05 14:50:00,75.3,51.3,30.02,NW,326,3.0,5.0,43,0.00,,---,0.00,VWS V14.01,2013-08-05 18:50:00,
2013-08-05 14:55:00,74.9,50.9,30.02,NE,44,1.0,5.0,43,0.00,,---,0.00,VWS V14.01,2013-08-05 18:55:00,
2013-08-05 15:00:00,75.0,50.4,30.02,North,5,2.0,5.0,42,0.00,,---,0.00,VWS V14.01,2013-08-05 19:00:00,
2013-08-05 15:05:00,75.4,50.7,30.02,WSW,255,3.0,4.0,42,0.00,,---,0.00,VWS V14.01,2013-08-05 19:05:00,
2013-08-05 15:10:00,75.4,50.1,30.02,West,264,1.0,7.0,41,0.00,,---,0.00,VWS V14.01,2013-08-05 19:10:00,
2013-08-05 15:15:00,75.4,53.2,30.01,North,352,1.0,7.0,46,0.00,,---,0.00,VWS V14.01,2013-08-05 19:15:00,
2013-08-05 15:20:00,75.7,49.7,30.01,North,355,5.0,7.0,40,0.00,,---,0.00,VWS V14.01,2013-08-05 19:20:00,
2013-08-05 15:25:00,75.1,50.5,30.01,North,352,1.0,7.0,42,0.00,,---,0.00,VWS V14.01,2013-08-05 19:25:00,
2013-08-05 15:30:00,75.3,49.3,30.01,West,269,4.0,7.0,40,0.00,,---,0.00,VWS V14.01,2013-08-05 19:30:00,
2013-08-05 15:36:00,75.7,51.0,30.01,WSW,255,3.0,5.0,42,0.00,,---,0.00,VWS V14.01,2013-08-05 19:36:00,
2013-08-05 15:41:00,75.5,50.8,30.01,North,3,1.0,7.0,42,0.00,,---,0.00,VWS V14.01,2013-08-05 19:41:00,
2013-08-05 15:46:00,75.9,50.5,30.01,ENE,57,1.0,7.0,41,0.00,,---,0.00,VWS V14.01,2013-08-05 19:46:00,
2013-08-05 15:51:00,76.0,51.3,30.01,WNW,285,4.0,7.0,42,0.00,,---,0.00,VWS V14.01,2013-08-05 19:51:00,
2013-08-05 15:56:00,76.2,50.8,30.01,West,274,3.0,7.0,41,0.00,,---,0.00,VWS V14.01,2013-08-05 19:56:00,
2013-08-05 16:01:00,76.7,51.2,30.01,West,281,3.0,7.0,41,0.00,,---,0.00,VWS V14.01,2013-08-05 20:01:00,
2013-08-05 16:06:00,76.3,49.5,30.01,NNE,27,1.0,5.0,39,0.00,,---,0.00,VWS V14.01,2013-08-05 20:06:00,
2013-08-05 16:11:00,76.3,49.5,30.01,ENE,70,1.0,5.0,39,0.00,,---,0.00,VWS V14.01,2013-08-05 20:11:00,
2013-08-05 16:16:00,76.2,50.1,30.01,North,356,1.0,5.0,40,0.00,,---,0.00,VWS V14.01,2013-08-05 20:16:00,
2013-08-05 16:22:00,75.9,50.5,30.01,ENE,58,1.0,5.0,41,0.00,,---,0.00,VWS V14.01,2013-08-05 20:22:00,
2013-08-05 16:27:00,75.9,50.5,30.00,North,10,3.0,5.0,41,0.00,,---,0.00,VWS V14.01,2013-08-05 20:27:00,
2013-08-05 16:32:00,75.8,51.1,30.00,NNW,345,0.0,0.0,42,0.00,,---,0.00,VWS V14.01,2013-08-05 20:32:00,
2013-08-05 16:37:00,75.7,50.4,30.00,WNW,293,3.0,5.0,41,0.00,,---,0.00,VWS V14.01,2013-08-05 20:37:00,
2013-08-05 16:42:00,75.7,50.4,30.00,WNW,291,1.0,5.0,41,0.00,,---,0.00,VWS V14.01,2013-08-05 20:42:00,
2013-08-05 16:47:00,75.6,51.5,30.00,NNW,335,3.0,5.0,43,0.00,,---,0.00,VWS V14.01,2013-08-05 20:47:00,
2013-08-05 16:52:00,75.5,50.2,30.00,West,273,3.0,5.0,41,0.00,,---,0.00,VWS V14.01,2013-08-05 20:52:00,
2013-08-05 16:57:00,75.4,50.1,30.00,WNW,283,1.0,5.0,41,0.00,,---,0.00,VWS V14.01,2013-08-05 20:57:00,
2013-08-05 17:02:00,75.2,50.6,30.00,NW,316,1.0,2.0,42,0.00,,---,0.00,VWS V14.01,2013-08-05 21:02:00,
2013-08-05 17:07:00,74.9,50.9,30.00,NW,311,1.0,2.0,43,0.00,,---,0.00,VWS V14.01,2013-08-05 21:07:00,
2013-08-05 17:13:00,74.9,50.9,30.01,West,260,2.0,6.0,43,0.00,,---,0.00,VWS V14.01,2013-08-05 21:13:00,
2013-08-05 17:18:00,74.8,50.8,30.00,WSW,257,0.0,6.0,43,0.00,,---,0.00,VWS V14.01,2013-08-05 21:18:00,
2013-08-05 17:23:00,74.9,50.9,30.00,West,263,2.0,6.0,43,0.00,,---,0.00,VWS V14.01,2013-08-05 21:23:00,
2013-08-05 17:28:00,75.0,50.4,30.00,West,267,2.0,6.0,42,0.00,,---,0.00,VWS V14.01,2013-08-05 21:28:00,
2013-08-05 17:33:00,75.3,53.1,30.01,WNW,290,3.0,3.0,46,0.00,,---,0.00,VWS V14.01,2013-08-05 21:33:00,
2013-08-05 17:38:00,75.3,54.3,30.01,NNW,338,1.0,3.0,48,0.00,,---,0.00,VWS V14.01,2013-08-05 21:38:00,
2013-08-05 17:43:00,75.0,51.6,30.01,West,260,1.0,3.0,44,0.00,,---,0.00,VWS V14.01,2013-08-05 21:43:00,
2013-08-05 17:48:00,75.0,53.4,30.01,West,277,0.0,3.0,47,0.00,,---,0.00,VWS V14.01,2013-08-05 21:48:00,
2013-08-05 17:53:00,74.9,53.3,30.01,WNW,302,1.0,3.0,47,0.00,,---,0.00,VWS V14.01,2013-08-05 21:53:00,
2013-08-05 17:58:00,74.7,51.4,30.01,NW,304,1.0,3.0,44,0.00,,---,0.00,VWS V14.01,2013-08-05 21:58:00,
2013-08-05 18:03:00,74.4,51.7,30.01,NNW,347,2.0,2.0,45,0.00,,---,0.00,VWS V14.01,2013-08-05 22:03:00,
2013-08-05 18:08:00,74.0,51.3,30.01,NW,319,1.0,2.0,45,0.00,,---,0.00,VWS V14.01,2013-08-05 22:08:00,
2013-08-05 18:13:00,73.7,52.8,30.01,NW,318,0.0,2.0,48,0.00,,---,0.00,VWS V14.01,2013-08-05 22:13:00,
2013-08-05 18:18:00,73.5,53.2,30.01,NW,318,0.0,2.0,49,0.00,,---,0.00,VWS V14.01,2013-08-05 22:18:00,
2013-08-05 18:23:00,73.3,55.2,30.01,NW,318,0.0,2.0,53,0.00,,---,0.00,VWS V14.01,2013-08-05 22:23:00,
2013-08-05 18:28:00,73.0,56.9,30.01,NW,318,0.0,2.0,57,0.00,,---,0.00,VWS V14.01,2013-08-05 22:28:00,
2013-08-05 18:33:00,72.7,58.0,30.01,NW,318,0.0,0.0,60,0.00,,---,0.00,VWS V14.01,2013-08-05 22:33:00,
2013-08-05 18:38:00,72.3,58.6,30.01,NW,318,0.0,0.0,62,0.00,,---,0.00,VWS V14.01,2013-08-05 22:38:00,
2013-08-05 18:43:00,71.7,59.3,30.02,NW,316,0.0,0.0,65,0.00,,---,0.00,VWS V14.01,2013-08-05 22:43:00,
2013-08-05 18:48:00,71.2,58.8,30.02,NW,318,0.0,0.0,65,0.00,,---,0.00,VWS V14.01,2013-08-05 22:48:00,
2013-08-05 18:53:00,70.8,58.9,30.02,WNW,291,0.0,0.0,66,0.00,,---,0.00,VWS V14.01,2013-08-05 22:53:00,
2013-08-05 18:58:00,70.3,58.0,30.02,WNW,291,0.0,0.0,65,0.00,,---,0.00,VWS V14.01,2013-08-05 22:58:00,
2013-08-05 19:04:00,69.9,58.0,30.02,WNW,291,0.0,0.0,66,0.00,,---,0.00,VWS V14.01,2013-08-05 23:04:00,
2013-08-05 19:09:00,69.6,59.0,30.02,WNW,291,0.0,0.0,69,0.00,,---,0.00,VWS V14.01,2013-08-05 23:09:00,
2013-08-05 19:14:00,69.3,58.7,30.03,WNW,291,0.0,0.0,69,0.00,,---,0.00,VWS V14.01,2013-08-05 23:14:00,
2013-08-05 19:19:00,69.0,58.8,30.03,WNW,290,0.0,0.0,70,0.00,,---,0.00,VWS V14.01,2013-08-05 23:19:00,
2013-08-05 19:24:00,68.7,58.5,30.03,WNW,291,0.0,0.0,70,0.00,,---,0.00,VWS V14.01,2013-08-05 23:24:00,
2013-08-05 19:29:00,68.4,58.6,30.03,WNW,290,0.0,0.0,71,0.00,,---,0.00,VWS V14.01,2013-08-05 23:29:00,
2013-08-05 19:34:00,68.2,59.2,30.03,WNW,291,0.0,0.0,73,0.00,,---,0.00,VWS V14.01,2013-08-05 23:34:00,
2013-08-05 19:39:00,68.1,59.5,30.03,WNW,291,0.0,0.0,74,0.00,,---,0.00,VWS V14.01,2013-08-05 23:39:00,
2013-08-05 19:44:00,67.7,59.5,30.03,WNW,291,0.0,0.0,75,0.00,,---,0.00,VWS V14.01,2013-08-05 23:44:00,
2013-08-05 19:49:00,67.2,58.6,30.03,WNW,290,0.0,0.0,74,0.00,,---,0.00,VWS V14.01,2013-08-05 23:49:00,
2013-08-05 19:54:00,66.7,58.5,30.04,WNW,290,0.0,0.0,75,0.00,,---,0.00,VWS V14.01,2013-08-05 23:54:00,
2013-08-05 19:59:00,66.3,57.8,30.04,WNW,290,0.0,0.0,74,0.00,,---,0.00,VWS V14.01,2013-08-05 23:59:00,
2013-08-05 20:04:00,66.0,57.5,30.04,WNW,290,0.0,0.0,74,0.00,,---,0.00,VWS V14.01,2013-08-06 00:04:00,
2013-08-05 20:09:00,65.7,57.6,30.04,WNW,290,0.0,0.0,75,0.00,,---,0.00,VWS V14.01,2013-08-06 00:09:00,
2013-08-05 20:15:00,65.4,57.3,30.04,WNW,290,0.0,0.0,75,0.00,,---,0.00,VWS V14.01,2013-08-06 00:15:00,
2013-08-05 20:20:00,65.0,57.3,30.04,WNW,290,0.0,0.0,76,0.00,,---,0.00,VWS V14.01,2013-08-06 00:20:00,
2013-08-05 20:25:00,64.7,57.3,30.04,WNW,291,0.0,0.0,77,0.00,,---,0.00,VWS V14.01,2013-08-06 00:25:00,
2013-08-05 20:30:00,64.3,57.0,30.04,WNW,290,0.0,0.0,77,0.00,,---,0.00,VWS V14.01,2013-08-06 00:30:00,
2013-08-05 20:35:00,64.1,57.1,30.04,WNW,290,0.0,0.0,78,0.00,,---,0.00,VWS V14.01,2013-08-06 00:35:00,
2013-08-05 20:40:00,63.7,56.7,30.05,WNW,290,0.0,0.0,78,0.00,,---,0.00,VWS V14.01,2013-08-06 00:40:00,
2013-08-05 20:45:00,63.5,56.9,30.05,WNW,290,0.0,0.0,79,0.00,,---,0.00,VWS V14.01,2013-08-06 00:45:00,
2013-08-05 20:50:00,63.3,57.0,30.05,WNW,290,0.0,0.0,80,0.00,,---,0.00,VWS V14.01,2013-08-06 00:50:00,
2013-08-05 20:55:00,63.1,57.2,30.05,WNW,290,0.0,0.0,81,0.00,,---,0.00,VWS V14.01,2013-08-06 00:55:00,
2013-08-05 21:00:00,62.9,57.0,30.05,WNW,290,0.0,0.0,81,0.00,,---,0.00,VWS V14.01,2013-08-06 01:00:00,
2013-08-05 21:05:00,62.7,56.8,30.05,WNW,290,0.0,0.0,81,0.00,,---,0.00,VWS V14.01,2013-08-06 01:05:00,
2013-08-05 21:10:00,62.5,56.6,30.05,WNW,291,0.0,0.0,81,0.00,,---,0.00,VWS V14.01,2013-08-06 01:10:00,
2013-08-05 21:15:00,62.4,56.8,30.05,WNW,290,0.0,0.0,82,0.00,,---,0.00,VWS V14.01,2013-08-06 01:15:00,
2013-08-05 21:20:00,62.3,56.7,30.05,WNW,290,0.0,0.0,82,0.00,,---,0.00,VWS V14.01,2013-08-06 01:20:00,
2013-08-05 21:25:00,62.2,56.6,30.05,WNW,290,0.0,0.0,82,0.00,,---,0.00,VWS V14.01,2013-08-06 01:25:00,
2013-08-05 21:30:00,62.1,56.9,30.05,WNW,290,0.0,0.0,83,0.00,,---,0.00,VWS V14.01,2013-08-06 01:30:00,
2013-08-05 21:36:00,62.0,56.8,30.05,WNW,290,0.0,0.0,83,0.00,,---,0.00,VWS V14.01,2013-08-06 01:36:00,
2013-08-05 21:41:00,61.8,56.6,30.05,WNW,290,0.0,0.0,83,0.00,,---,0.00,VWS V14.01,2013-08-06 01:41:00,
2013-08-05 21:46:00,61.6,56.4,30.05,WNW,291,0.0,0.0,83,0.00,,---,0.00,VWS V14.01,2013-08-06 01:46:00,
2013-08-05 21:51:00,61.4,56.2,30.05,WNW,290,0.0,0.0,83,0.00,,---,0.00,VWS V14.01,2013-08-06 01:51:00,
2013-08-05 21:56:00,61.3,56.1,30.05,WNW,290,0.0,0.0,83,0.00,,---,0.00,VWS V14.01,2013-08-06 01:56:00,
2013-08-05 22:01:00,61.2,56.3,30.05,WNW,290,0.0,0.0,84,0.00,,---,0.00,VWS V14.01,2013-08-06 02:01:00,
2013-08-05 22:06:00,61.0,56.1,30.05,WNW,291,0.0,0.0,84,0.00,,---,0.00,VWS V14.01,2013-08-06 02:06:00,
2013-08-05 22:11:00,60.8,55.9,30.05,WNW,290,0.0,0.0,84,0.00,,---,0.00,VWS V14.01,2013-08-06 02:11:00,
2013-08-05 22:16:00,60.7,56.2,30.05,WNW,290,0.0,0.0,85,0.00,,---,0.00,VWS V14.01,2013-08-06 02:16:00,
2013-08-05 22:21:00,60.5,56.0,30.05,WNW,291,0.0,0.0,85,0.00,,---,0.00,VWS V14.01,2013-08-06 02:21:00,
2013-08-05 22:26:00,60.4,56.2,30.05,WNW,291,0.0,0.0,86,0.00,,---,0.00,VWS V14.01,2013-08-06 02:26:00,
2013-08-05 22:31:00,60.3,56.4,30.05,WNW,290,0.0,0.0,87,0.00,,---,0.00,VWS V14.01,2013-08-06 02:31:00,
2013-08-05 22:36:00,60.1,56.2,30.05,WNW,290,0.0,0.0,87,0.00,,---,0.00,VWS V14.01,2013-08-06 02:36:00,
2013-08-05 22:41:00,60.1,56.5,30.05,WNW,291,0.0,0.0,88,0.00,,---,0.00,VWS V14.01,2013-08-06 02:41:00,
2013-08-05 22:46:00,59.9,56.3,30.05,WNW,291,0.0,0.0,88,0.00,,---,0.00,VWS V14.01,2013-08-06 02:46:00,
2013-08-05 22:51:00,59.9,56.7,30.05,WNW,291,0.0,0.0,89,0.00,,---,0.00,VWS V14.01,2013-08-06 02:51:00,
2013-08-05 22:56:00,59.8,56.6,30.05,WNW,291,0.0,0.0,89,0.00,,---,0.00,VWS V14.01,2013-08-06 02:56:00,
2013-08-05 23:01:00,59.7,56.5,30.05,WNW,291,0.0,0.0,89,0.00,,---,0.00,VWS V14.01,2013-08-06 03:01:00,
2013-08-05 23:07:00,59.6,56.4,30.05,WNW,291,0.0,0.0,89,0.00,,---,0.00,VWS V14.01,2013-08-06 03:07:00,
2013-08-05 23:12:00,59.5,56.6,30.05,WNW,291,0.0,0.0,90,0.00,,---,0.00,VWS V14.01,2013-08-06 03:12:00,
2013-08-05 23:17:00,59.3,56.4,30.05,WNW,291,0.0,0.0,90,0.00,,---,0.00,VWS V14.01,2013-08-06 03:17:00,
2013-08-05 23:22:00,59.2,56.3,30.05,WNW,291,0.0,0.0,90,0.00,,---,0.00,VWS V14.01,2013-08-06 03:22:00,
2013-08-05 23:27:00,59.1,56.2,30.05,WNW,290,0.0,0.0,90,0.00,,---,0.00,VWS V14.01,2013-08-06 03:27:00,
2013-08-05 23:32:00,59.0,56.4,30.05,WNW,291,0.0,0.0,91,0.00,,---,0.00,VWS V14.01,2013-08-06 03:32:00,
2013-08-05 23:37:00,58.9,56.3,30.05,WNW,291,0.0,0.0,91,0.00,,---,0.00,VWS V14.01,2013-08-06 03:37:00,
2013-08-05 23:42:00,58.7,56.1,30.05,WNW,291,0.0,0.0,91,0.00,,---,0.00,VWS V14.01,2013-08-06 03:42:00,
2013-08-05 23:47:00,58.6,56.0,30.05,WNW,291,0.0,0.0,91,0.00,,---,0.00,VWS V14.01,2013-08-06 03:47:00,
2013-08-05 23:52:00,58.4,55.8,30.05,WNW,291,0.0,0.0,91,0.00,,---,0.00,VWS V14.01,2013-08-06 03:52:00,
2013-08-05 23:57:00,58.3,56.0,30.05,WNW,291,0.0,0.0,92,0.00,,---,0.00,VWS V14.01,2013-08-06 03:57:00,